sensor_id;sensor_type;location;lat;lon;timestamp;temperature;humidity
18712;DHT22;9485;49.386;8.674;2023-04-16T00:04:49;12.10;91.90
18712;DHT22;9485;49.386;8.674;2023-04-16T00:10:10;12.10;92.00
18712;DHT22;9485;49.386;8.674;2023-04-16T00:15:32;12.10;92.00
18712;DHT22;9485;49.386;8.674;2023-04-16T00:20:52;12.10;92.10
18712;DHT22;9485;49.386;8.674;2023-04-16T00:26:13;12.10;92.10
18712;DHT22;9485;49.386;8.674;2023-04-16T00:31:38;12.10;92.20
18712;DHT22;9485;49.386;8.674;2023-04-16T00:36:58;12.10;92.30
18712;DHT22;9485;49.386;8.674;2023-04-16T00:42:19;12.10;92.40
18712;DHT22;9485;49.386;8.674;2023-04-16T00:47:40;12.10;92.40
18712;DHT22;9485;49.386;8.674;2023-04-16T00:53:01;12.10;92.50
18712;DHT22;9485;49.386;8.674;2023-04-16T00:58:22;12.10;92.60
18712;DHT22;9485;49.386;8.674;2023-04-16T01:03:45;12.10;92.60
18712;DHT22;9485;49.386;8.674;2023-04-16T01:09:08;12.10;92.60
18712;DHT22;9485;49.386;8.674;2023-04-16T01:14:29;12.10;92.70
18712;DHT22;9485;49.386;8.674;2023-04-16T01:19:58;12.10;92.70
18712;DHT22;9485;49.386;8.674;2023-04-16T01:25:20;12.10;92.80
18712;DHT22;9485;49.386;8.674;2023-04-16T01:30:41;12.10;92.90
18712;DHT22;9485;49.386;8.674;2023-04-16T01:36:11;12.10;93.00
18712;DHT22;9485;49.386;8.674;2023-04-16T01:41:32;12.10;93.00
18712;DHT22;9485;49.386;8.674;2023-04-16T01:46:54;12.10;93.10
18712;DHT22;9485;49.386;8.674;2023-04-16T01:52:15;12.20;93.10
18712;DHT22;9485;49.386;8.674;2023-04-16T01:57:37;12.10;93.10
18712;DHT22;9485;49.386;8.674;2023-04-16T02:02:57;12.10;93.10
18712;DHT22;9485;49.386;8.674;2023-04-16T02:08:20;12.10;93.00
18712;DHT22;9485;49.386;8.674;2023-04-16T02:13:42;12.10;92.90
18712;DHT22;9485;49.386;8.674;2023-04-16T02:19:02;12.10;92.90
18712;DHT22;9485;49.386;8.674;2023-04-16T02:24:26;12.10;92.90
18712;DHT22;9485;49.386;8.674;2023-04-16T02:29:49;12.00;93.10
18712;DHT22;9485;49.386;8.674;2023-04-16T02:35:10;12.00;93.10
18712;DHT22;9485;49.386;8.674;2023-04-16T02:40:31;11.90;93.10
18712;DHT22;9485;49.386;8.674;2023-04-16T02:45:53;11.90;93.00
18712;DHT22;9485;49.386;8.674;2023-04-16T02:51:14;11.90;93.10
18712;DHT22;9485;49.386;8.674;2023-04-16T02:56:35;11.90;93.20
18712;DHT22;9485;49.386;8.674;2023-04-16T03:01:56;11.90;93.30
18712;DHT22;9485;49.386;8.674;2023-04-16T03:07:17;11.90;93.40
18712;DHT22;9485;49.386;8.674;2023-04-16T03:12:37;11.90;93.40
18712;DHT22;9485;49.386;8.674;2023-04-16T03:18:01;11.90;93.40
18712;DHT22;9485;49.386;8.674;2023-04-16T03:23:21;11.90;93.40
18712;DHT22;9485;49.386;8.674;2023-04-16T03:28:42;11.90;93.50
18712;DHT22;9485;49.386;8.674;2023-04-16T03:34:05;11.90;93.50
18712;DHT22;9485;49.386;8.674;2023-04-16T03:39:26;11.90;93.50
18712;DHT22;9485;49.386;8.674;2023-04-16T03:44:46;11.90;93.50
18712;DHT22;9485;49.386;8.674;2023-04-16T03:50:10;11.90;93.40
18712;DHT22;9485;49.386;8.674;2023-04-16T03:55:33;11.90;93.50
18712;DHT22;9485;49.386;8.674;2023-04-16T04:00:55;11.90;93.50
18712;DHT22;9485;49.386;8.674;2023-04-16T04:06:17;11.90;93.50
18712;DHT22;9485;49.386;8.674;2023-04-16T04:11:38;11.90;93.50
18712;DHT22;9485;49.386;8.674;2023-04-16T04:16:59;11.90;93.50
18712;DHT22;9485;49.386;8.674;2023-04-16T04:22:21;11.90;93.50
18712;DHT22;9485;49.386;8.674;2023-04-16T04:27:42;11.90;93.50
18712;DHT22;9485;49.386;8.674;2023-04-16T04:33:03;11.90;93.50
18712;DHT22;9485;49.386;8.674;2023-04-16T04:38:25;11.90;93.50
18712;DHT22;9485;49.386;8.674;2023-04-16T04:43:46;11.90;93.50
18712;DHT22;9485;49.386;8.674;2023-04-16T04:49:07;11.90;93.50
18712;DHT22;9485;49.386;8.674;2023-04-16T04:54:30;11.90;93.50
18712;DHT22;9485;49.386;8.674;2023-04-16T04:59:51;11.80;93.90
18712;DHT22;9485;49.386;8.674;2023-04-16T05:05:12;11.80;93.60
18712;DHT22;9485;49.386;8.674;2023-04-16T05:10:34;11.80;93.60
18712;DHT22;9485;49.386;8.674;2023-04-16T05:15:54;11.80;93.70
18712;DHT22;9485;49.386;8.674;2023-04-16T05:21:15;11.90;93.70
18712;DHT22;9485;49.386;8.674;2023-04-16T05:26:37;11.80;93.70
18712;DHT22;9485;49.386;8.674;2023-04-16T05:31:58;11.90;93.80
18712;DHT22;9485;49.386;8.674;2023-04-16T05:37:19;11.90;93.70
18712;DHT22;9485;49.386;8.674;2023-04-16T05:42:41;11.90;93.70
18712;DHT22;9485;49.386;8.674;2023-04-16T05:48:02;11.90;93.80
18712;DHT22;9485;49.386;8.674;2023-04-16T05:53:24;11.90;93.80
18712;DHT22;9485;49.386;8.674;2023-04-16T05:58:46;12.00;93.90
18712;DHT22;9485;49.386;8.674;2023-04-16T06:04:07;12.00;94.20
18712;DHT22;9485;49.386;8.674;2023-04-16T06:09:30;12.10;94.00
18712;DHT22;9485;49.386;8.674;2023-04-16T06:14:52;12.10;94.10
18712;DHT22;9485;49.386;8.674;2023-04-16T06:20:13;12.20;93.90
18712;DHT22;9485;49.386;8.674;2023-04-16T06:25:34;12.20;93.90
18712;DHT22;9485;49.386;8.674;2023-04-16T06:30:56;12.20;93.90
18712;DHT22;9485;49.386;8.674;2023-04-16T06:36:17;12.30;93.90
18712;DHT22;9485;49.386;8.674;2023-04-16T06:41:37;12.30;93.90
18712;DHT22;9485;49.386;8.674;2023-04-16T06:46:59;12.30;93.90
18712;DHT22;9485;49.386;8.674;2023-04-16T06:52:20;12.30;93.80
18712;DHT22;9485;49.386;8.674;2023-04-16T06:57:41;12.30;93.90
18712;DHT22;9485;49.386;8.674;2023-04-16T07:03:05;12.40;93.90
18712;DHT22;9485;49.386;8.674;2023-04-16T07:08:25;12.40;94.00
18712;DHT22;9485;49.386;8.674;2023-04-16T07:13:47;12.50;94.00
18712;DHT22;9485;49.386;8.674;2023-04-16T07:19:10;12.50;94.00
18712;DHT22;9485;49.386;8.674;2023-04-16T07:24:32;12.60;94.00
18712;DHT22;9485;49.386;8.674;2023-04-16T07:29:53;12.60;93.90
18712;DHT22;9485;49.386;8.674;2023-04-16T07:35:16;12.60;93.80
18712;DHT22;9485;49.386;8.674;2023-04-16T07:40:37;12.60;93.60
18712;DHT22;9485;49.386;8.674;2023-04-16T07:45:58;12.60;93.50
18712;DHT22;9485;49.386;8.674;2023-04-16T07:51:20;12.50;93.50
18712;DHT22;9485;49.386;8.674;2023-04-16T07:56:42;12.50;93.50
18712;DHT22;9485;49.386;8.674;2023-04-16T08:02:06;12.50;93.60
18712;DHT22;9485;49.386;8.674;2023-04-16T08:07:30;12.50;93.50
18712;DHT22;9485;49.386;8.674;2023-04-16T08:12:51;12.50;93.60
18712;DHT22;9485;49.386;8.674;2023-04-16T08:18:13;12.50;93.60
18712;DHT22;9485;49.386;8.674;2023-04-16T08:23:36;12.50;93.60
18712;DHT22;9485;49.386;8.674;2023-04-16T08:28:57;12.50;93.60
18712;DHT22;9485;49.386;8.674;2023-04-16T08:34:18;12.40;93.60
18712;DHT22;9485;49.386;8.674;2023-04-16T08:39:41;12.40;93.70
18712;DHT22;9485;49.386;8.674;2023-04-16T08:45:07;12.40;93.70
18712;DHT22;9485;49.386;8.674;2023-04-16T08:50:29;12.50;93.90
18712;DHT22;9485;49.386;8.674;2023-04-16T08:55:56;12.50;94.00
18712;DHT22;9485;49.386;8.674;2023-04-16T09:01:24;12.60;93.80
18712;DHT22;9485;49.386;8.674;2023-04-16T09:06:45;12.60;93.80
18712;DHT22;9485;49.386;8.674;2023-04-16T09:12:09;12.60;93.80
18712;DHT22;9485;49.386;8.674;2023-04-16T09:17:30;12.70;93.60
18712;DHT22;9485;49.386;8.674;2023-04-16T09:22:51;12.70;93.80
18712;DHT22;9485;49.386;8.674;2023-04-16T09:28:40;12.70;93.80
18712;DHT22;9485;49.386;8.674;2023-04-16T09:34:04;12.70;93.60
18712;DHT22;9485;49.386;8.674;2023-04-16T09:39:25;12.70;93.90
18712;DHT22;9485;49.386;8.674;2023-04-16T09:44:49;12.80;94.00
18712;DHT22;9485;49.386;8.674;2023-04-16T09:50:15;12.80;93.90
18712;DHT22;9485;49.386;8.674;2023-04-16T09:55:37;12.80;93.80
18712;DHT22;9485;49.386;8.674;2023-04-16T10:01:01;12.80;93.70
18712;DHT22;9485;49.386;8.674;2023-04-16T10:07:01;12.80;93.70
18712;DHT22;9485;49.386;8.674;2023-04-16T10:12:23;12.80;93.50
18712;DHT22;9485;49.386;8.674;2023-04-16T10:17:47;12.70;93.60
18712;DHT22;9485;49.386;8.674;2023-04-16T10:23:11;12.70;93.70
18712;DHT22;9485;49.386;8.674;2023-04-16T10:28:32;12.70;93.70
18712;DHT22;9485;49.386;8.674;2023-04-16T10:33:55;12.70;93.70
18712;DHT22;9485;49.386;8.674;2023-04-16T10:39:18;12.70;93.80
18712;DHT22;9485;49.386;8.674;2023-04-16T10:44:41;12.70;93.80
18712;DHT22;9485;49.386;8.674;2023-04-16T10:50:14;12.70;94.00
18712;DHT22;9485;49.386;8.674;2023-04-16T10:55:37;12.70;94.00
18712;DHT22;9485;49.386;8.674;2023-04-16T11:00:58;12.70;94.10
18712;DHT22;9485;49.386;8.674;2023-04-16T11:06:25;12.70;94.20
18712;DHT22;9485;49.386;8.674;2023-04-16T11:11:48;12.70;94.20
18712;DHT22;9485;49.386;8.674;2023-04-16T11:17:09;12.60;94.20
18712;DHT22;9485;49.386;8.674;2023-04-16T11:22:34;12.70;94.30
18712;DHT22;9485;49.386;8.674;2023-04-16T11:27:55;12.70;94.50
18712;DHT22;9485;49.386;8.674;2023-04-16T11:33:17;12.80;94.70
18712;DHT22;9485;49.386;8.674;2023-04-16T11:38:39;12.80;94.70
18712;DHT22;9485;49.386;8.674;2023-04-16T11:44:16;12.90;94.90
18712;DHT22;9485;49.386;8.674;2023-04-16T11:49:40;12.90;94.80
18712;DHT22;9485;49.386;8.674;2023-04-16T11:55:05;13.00;94.90
18712;DHT22;9485;49.386;8.674;2023-04-16T12:00:33;13.00;94.80
18712;DHT22;9485;49.386;8.674;2023-04-16T12:06:06;13.10;94.80
18712;DHT22;9485;49.386;8.674;2023-04-16T12:11:40;13.10;94.70
18712;DHT22;9485;49.386;8.674;2023-04-16T12:17:20;13.20;94.70
18712;DHT22;9485;49.386;8.674;2023-04-16T12:22:44;13.20;94.70
18712;DHT22;9485;49.386;8.674;2023-04-16T12:28:09;13.20;94.90
18712;DHT22;9485;49.386;8.674;2023-04-16T12:33:31;13.20;94.90
18712;DHT22;9485;49.386;8.674;2023-04-16T12:38:51;13.30;94.90
18712;DHT22;9485;49.386;8.674;2023-04-16T12:44:15;13.30;94.90
18712;DHT22;9485;49.386;8.674;2023-04-16T12:49:36;13.40;94.90
18712;DHT22;9485;49.386;8.674;2023-04-16T12:54:57;13.40;94.90
18712;DHT22;9485;49.386;8.674;2023-04-16T13:00:20;13.40;94.90
18712;DHT22;9485;49.386;8.674;2023-04-16T13:05:47;13.40;94.90
18712;DHT22;9485;49.386;8.674;2023-04-16T13:11:08;13.40;94.90
18712;DHT22;9485;49.386;8.674;2023-04-16T13:16:31;13.50;94.90
18712;DHT22;9485;49.386;8.674;2023-04-16T13:21:52;13.50;94.90
18712;DHT22;9485;49.386;8.674;2023-04-16T13:27:13;13.50;95.00
18712;DHT22;9485;49.386;8.674;2023-04-16T13:32:36;13.60;95.00
18712;DHT22;9485;49.386;8.674;2023-04-16T13:37:57;13.60;94.90
18712;DHT22;9485;49.386;8.674;2023-04-16T13:43:18;13.60;95.00
18712;DHT22;9485;49.386;8.674;2023-04-16T13:48:41;13.60;95.00
18712;DHT22;9485;49.386;8.674;2023-04-16T13:54:02;13.70;95.00
18712;DHT22;9485;49.386;8.674;2023-04-16T13:59:24;13.70;95.00
18712;DHT22;9485;49.386;8.674;2023-04-16T14:04:47;13.80;95.00
18712;DHT22;9485;49.386;8.674;2023-04-16T14:10:09;13.70;94.80
18712;DHT22;9485;49.386;8.674;2023-04-16T14:15:30;13.80;94.90
18712;DHT22;9485;49.386;8.674;2023-04-16T14:20:52;13.70;94.80
18712;DHT22;9485;49.386;8.674;2023-04-16T14:26:13;13.70;94.80
18712;DHT22;9485;49.386;8.674;2023-04-16T14:31:35;13.70;94.80
18712;DHT22;9485;49.386;8.674;2023-04-16T14:36:57;13.70;94.70
18712;DHT22;9485;49.386;8.674;2023-04-16T14:42:18;13.70;94.60
18712;DHT22;9485;49.386;8.674;2023-04-16T14:47:40;13.70;94.60
18712;DHT22;9485;49.386;8.674;2023-04-16T14:53:09;13.70;94.70
18712;DHT22;9485;49.386;8.674;2023-04-16T14:58:31;13.70;94.90
18712;DHT22;9485;49.386;8.674;2023-04-16T15:03:54;13.60;94.80
18712;DHT22;9485;49.386;8.674;2023-04-16T15:09:17;13.70;94.70
18712;DHT22;9485;49.386;8.674;2023-04-16T15:14:38;13.70;94.80
18712;DHT22;9485;49.386;8.674;2023-04-16T15:19:59;13.70;94.80
18712;DHT22;9485;49.386;8.674;2023-04-16T15:25:21;13.70;94.90
18712;DHT22;9485;49.386;8.674;2023-04-16T15:30:43;13.70;95.00
18712;DHT22;9485;49.386;8.674;2023-04-16T15:36:04;13.80;95.10
18712;DHT22;9485;49.386;8.674;2023-04-16T15:41:28;13.80;95.20
18712;DHT22;9485;49.386;8.674;2023-04-16T15:46:50;13.90;95.30
18712;DHT22;9485;49.386;8.674;2023-04-16T15:52:11;14.00;95.30
18712;DHT22;9485;49.386;8.674;2023-04-16T15:57:33;14.00;95.20
18712;DHT22;9485;49.386;8.674;2023-04-16T16:02:56;14.10;95.00
18712;DHT22;9485;49.386;8.674;2023-04-16T16:08:17;14.10;94.90
18712;DHT22;9485;49.386;8.674;2023-04-16T16:13:39;14.10;94.80
18712;DHT22;9485;49.386;8.674;2023-04-16T16:19:03;14.10;94.90
18712;DHT22;9485;49.386;8.674;2023-04-16T16:24:25;14.00;94.80
18712;DHT22;9485;49.386;8.674;2023-04-16T16:29:47;14.00;94.80
18712;DHT22;9485;49.386;8.674;2023-04-16T16:35:09;14.00;94.80
18712;DHT22;9485;49.386;8.674;2023-04-16T16:40:32;14.00;94.80
18712;DHT22;9485;49.386;8.674;2023-04-16T16:45:55;14.00;94.80
18712;DHT22;9485;49.386;8.674;2023-04-16T16:51:16;14.00;94.80
18712;DHT22;9485;49.386;8.674;2023-04-16T16:56:37;14.00;94.90
18712;DHT22;9485;49.386;8.674;2023-04-16T17:01:59;14.00;95.00
18712;DHT22;9485;49.386;8.674;2023-04-16T17:07:20;14.00;95.00
18712;DHT22;9485;49.386;8.674;2023-04-16T17:12:41;14.00;95.00
18712;DHT22;9485;49.386;8.674;2023-04-16T17:18:04;14.00;95.00
18712;DHT22;9485;49.386;8.674;2023-04-16T17:23:25;14.00;94.90
18712;DHT22;9485;49.386;8.674;2023-04-16T17:28:46;13.90;94.90
18712;DHT22;9485;49.386;8.674;2023-04-16T17:34:08;13.90;94.90
18712;DHT22;9485;49.386;8.674;2023-04-16T17:39:28;13.90;94.90
18712;DHT22;9485;49.386;8.674;2023-04-16T17:44:50;13.80;94.80
18712;DHT22;9485;49.386;8.674;2023-04-16T17:50:12;13.80;94.80
18712;DHT22;9485;49.386;8.674;2023-04-16T17:55:33;13.80;94.80
18712;DHT22;9485;49.386;8.674;2023-04-16T18:00:56;13.80;95.10
18712;DHT22;9485;49.386;8.674;2023-04-16T18:06:21;13.70;94.80
18712;DHT22;9485;49.386;8.674;2023-04-16T18:11:42;13.70;94.80
18712;DHT22;9485;49.386;8.674;2023-04-16T18:17:03;13.70;94.80
18712;DHT22;9485;49.386;8.674;2023-04-16T18:22:25;13.60;94.80
18712;DHT22;9485;49.386;8.674;2023-04-16T18:27:47;13.60;94.80
18712;DHT22;9485;49.386;8.674;2023-04-16T18:33:07;13.50;94.80
18712;DHT22;9485;49.386;8.674;2023-04-16T18:38:31;13.50;94.90
18712;DHT22;9485;49.386;8.674;2023-04-16T18:43:52;13.50;94.90
18712;DHT22;9485;49.386;8.674;2023-04-16T18:49:13;13.40;94.90
18712;DHT22;9485;49.386;8.674;2023-04-16T18:54:35;13.40;94.80
18712;DHT22;9485;49.386;8.674;2023-04-16T18:59:55;13.40;94.80
18712;DHT22;9485;49.386;8.674;2023-04-16T19:05:16;13.40;94.80
18712;DHT22;9485;49.386;8.674;2023-04-16T19:10:40;13.30;94.70
18712;DHT22;9485;49.386;8.674;2023-04-16T19:16:01;13.30;94.70
18712;DHT22;9485;49.386;8.674;2023-04-16T19:21:24;13.20;94.70
18712;DHT22;9485;49.386;8.674;2023-04-16T19:26:47;13.20;94.80
18712;DHT22;9485;49.386;8.674;2023-04-16T19:32:07;13.10;94.80
18712;DHT22;9485;49.386;8.674;2023-04-16T19:37:27;13.10;95.20
18712;DHT22;9485;49.386;8.674;2023-04-16T19:42:49;13.10;94.90
18712;DHT22;9485;49.386;8.674;2023-04-16T19:48:10;13.00;94.90
18712;DHT22;9485;49.386;8.674;2023-04-16T19:53:30;13.10;94.90
18712;DHT22;9485;49.386;8.674;2023-04-16T19:58:53;13.00;95.00
18712;DHT22;9485;49.386;8.674;2023-04-16T20:04:14;13.00;95.00
18712;DHT22;9485;49.386;8.674;2023-04-16T20:09:35;13.00;95.00
18712;DHT22;9485;49.386;8.674;2023-04-16T20:14:56;13.00;95.00
18712;DHT22;9485;49.386;8.674;2023-04-16T20:20:17;12.90;95.00
18712;DHT22;9485;49.386;8.674;2023-04-16T20:25:40;13.00;95.10
18712;DHT22;9485;49.386;8.674;2023-04-16T20:31:02;13.00;95.00
18712;DHT22;9485;49.386;8.674;2023-04-16T20:36:23;12.90;95.00
18712;DHT22;9485;49.386;8.674;2023-04-16T20:41:45;12.90;95.00
18712;DHT22;9485;49.386;8.674;2023-04-16T20:47:16;12.90;95.00
18712;DHT22;9485;49.386;8.674;2023-04-16T20:52:37;12.90;95.00
18712;DHT22;9485;49.386;8.674;2023-04-16T20:57:58;12.90;94.90
18712;DHT22;9485;49.386;8.674;2023-04-16T21:03:20;12.80;94.80
18712;DHT22;9485;49.386;8.674;2023-04-16T21:08:41;12.80;94.80
18712;DHT22;9485;49.386;8.674;2023-04-16T21:14:02;12.80;94.90
18712;DHT22;9485;49.386;8.674;2023-04-16T21:19:25;12.70;94.90
18712;DHT22;9485;49.386;8.674;2023-04-16T21:24:45;12.70;94.90
18712;DHT22;9485;49.386;8.674;2023-04-16T21:30:07;12.70;95.00
18712;DHT22;9485;49.386;8.674;2023-04-16T21:35:31;12.70;95.00
18712;DHT22;9485;49.386;8.674;2023-04-16T21:40:52;12.70;95.00
18712;DHT22;9485;49.386;8.674;2023-04-16T21:46:14;12.70;95.10
18712;DHT22;9485;49.386;8.674;2023-04-16T21:51:36;12.70;95.10
18712;DHT22;9485;49.386;8.674;2023-04-16T21:56:56;12.70;95.00
18712;DHT22;9485;49.386;8.674;2023-04-16T22:02:17;12.70;95.00
18712;DHT22;9485;49.386;8.674;2023-04-16T22:07:39;12.70;95.00
18712;DHT22;9485;49.386;8.674;2023-04-16T22:12:59;12.70;95.00
18712;DHT22;9485;49.386;8.674;2023-04-16T22:18:21;12.70;95.00
18712;DHT22;9485;49.386;8.674;2023-04-16T22:23:45;12.70;95.10
18712;DHT22;9485;49.386;8.674;2023-04-16T22:29:05;12.70;95.10
18712;DHT22;9485;49.386;8.674;2023-04-16T22:34:26;12.70;95.10
18712;DHT22;9485;49.386;8.674;2023-04-16T22:39:48;12.70;95.20
18712;DHT22;9485;49.386;8.674;2023-04-16T22:45:10;12.70;95.10
18712;DHT22;9485;49.386;8.674;2023-04-16T22:50:30;12.80;95.10
18712;DHT22;9485;49.386;8.674;2023-04-16T22:55:52;12.70;95.20
18712;DHT22;9485;49.386;8.674;2023-04-16T23:01:12;12.80;95.20
18712;DHT22;9485;49.386;8.674;2023-04-16T23:06:33;12.80;95.20
18712;DHT22;9485;49.386;8.674;2023-04-16T23:11:55;12.90;95.10
18712;DHT22;9485;49.386;8.674;2023-04-16T23:17:16;12.90;95.10
18712;DHT22;9485;49.386;8.674;2023-04-16T23:22:36;12.90;95.10
18712;DHT22;9485;49.386;8.674;2023-04-16T23:27:58;12.80;95.10
18712;DHT22;9485;49.386;8.674;2023-04-16T23:33:20;12.80;95.00
18712;DHT22;9485;49.386;8.674;2023-04-16T23:38:40;12.80;94.90
18712;DHT22;9485;49.386;8.674;2023-04-16T23:44:02;12.80;94.90
18712;DHT22;9485;49.386;8.674;2023-04-16T23:49:23;12.70;95.00
18712;DHT22;9485;49.386;8.674;2023-04-16T23:54:43;12.70;95.00
